Terminal Aerodrome Forecast
Issued by NWS Billings, MT

Home | Current Version | Previous Version | Graphics & Text | Print | Product List | Glossary On
Versions: 1 2 3 4 5 6 7 8 9 10 11 12 13 14 15
000
FTUS45 KBYZ 221353 AAA
TAFMLS
TAF AMD
KMLS 221353Z 2214/2312 VRB06KT P6SM VCSH OVC030
      TEMPO 2214/2215 31011KT 3SM SHRASN BKN006 OVC030
     FM221500 36011KT 2SM -SHSN BKN015 OVC030
     FM222100 03010KT 5SM -SHSN OVC025
     FM230100 07010KT P6SM SCT030 BKN070=

USA.gov is the U.S. government's official web portal to all federal, state and local government web resources and services.